Observation data for Seymour on 03/24/2019      Previous  Date  Next       Current Mesonet Observations  Soil Data  Daily Summary Page  Observations in Plain Language
KSE1 240500Z 16008KT 15/10 A2995 RMK A01 T01540100  RH  072%=      5-min Rain = 0
KSE1 240505Z 16008KT 15/10 A2995 RMK A01 T01520102  RH  074%=      5-min Rain = 0
KSE1 240510Z 17007KT 15/10 A2995 RMK A01 T01490102  RH  076%=      5-min Rain = 0
KSE1 240515Z 17006KT 15/10 A2995 RMK A01 T01460102  RH  077%=      5-min Rain = 0
KSE1 240520Z 17007KT 14/10 A2995 RMK A01 T01410100  RH  079%=      5-min Rain = 0
KSE1 240525Z 17007KT 14/11 A2995 RMK A01 T01420106  RH  081%=      5-min Rain = 0
KSE1 240530Z 20005KT 14/10 A2995 RMK A01 T01380101  RH  081%=      5-min Rain = 0
KSE1 240535Z 17007KT 13/10 A2995 RMK A01 T01340099  RH  082%=      5-min Rain = 0
KSE1 240540Z 16007KT 14/11 A2995 RMK A01 T01380107  RH  085%=      5-min Rain = 0
KSE1 240545Z 16007KT 14/11 A2995 RMK A01 T01390110  RH  085%=      5-min Rain = 0
KSE1 240550Z 16007KT 14/12 A2995 RMK A01 T01420117  RH  088%=      5-min Rain = 0
KSE1 240555Z 16007KT 14/12 A2995 RMK A01 T01420116  RH  088%=      5-min Rain = 0
KSE1 240600Z 16007KT 14/12 A2995 RMK A01 T01430119  RH  089%=      5-min Rain = 0
KSE1 240605Z 16007KT 14/12 A2995 RMK A01 T01430120  RH  089%=      5-min Rain = 0
KSE1 240610Z 16007KT 15/12 A2995 RMK A01 T01450123  RH  090%=      5-min Rain = 0
KSE1 240615Z 16008KT 15/13 A2994 RMK A01 T01470125  RH  090%=      5-min Rain = 0
KSE1 240620Z 17008KT 15/12 A2994 RMK A01 T01470124  RH  090%=      5-min Rain = 0
KSE1 240625Z 17008KT 15/12 A2994 RMK A01 T01460123  RH  090%=      5-min Rain = 0
KSE1 240630Z 17007KT 15/12 A2994 RMK A01 T01450123  RH  090%=      5-min Rain = 0
KSE1 240635Z 16007KT 14/12 A2994 RMK A01 T01440122  RH  090%=      5-min Rain = 0
KSE1 240640Z 16007KT 14/12 A2994 RMK A01 T01430121  RH  090%=      5-min Rain = 0
KSE1 240645Z 16007KT 14/12 A2994 RMK A01 T01410120  RH  091%=      5-min Rain = 0
KSE1 240650Z 16006KT 14/12 A2994 RMK A01 T01410121  RH  091%=      5-min Rain = 0
KSE1 240655Z 16006KT 14/12 A2994 RMK A01 T01410121  RH  091%=      5-min Rain = 0
KSE1 240700Z 16006KT 14/12 A2994 RMK A01 T01400120  RH  091%=      5-min Rain = 0
KSE1 240705Z 17005KT 14/12 A2994 RMK A01 T01370117  RH  091%=      5-min Rain = 0
KSE1 240710Z 17005KT 14/12 A2994 RMK A01 T01350116  RH  092%=      5-min Rain = 0
KSE1 240715Z 17005KT 13/12 A2994 RMK A01 T01340115  RH  092%=      5-min Rain = 0
KSE1 240720Z 17005KT 13/12 A2994 RMK A01 T01330115  RH  092%=      5-min Rain = 0
KSE1 240725Z 17004KT 13/11 A2994 RMK A01 T01300113  RH  092%=      5-min Rain = 0
KSE1 240730Z 17004KT 13/11 A2995 RMK A01 T01280111  RH  093%=      5-min Rain = 0
KSE1 240735Z 18004KT 13/11 A2995 RMK A01 T01280112  RH  094%=      5-min Rain = 0
KSE1 240740Z 18005KT 13/11 A2994 RMK A01 T01270113  RH  094%=      5-min Rain = 0
KSE1 240745Z 17004KT 13/11 A2994 RMK A01 T01260111  RH  094%=      5-min Rain = 0
KSE1 240750Z 17005KT 13/11 A2994 RMK A01 T01250111  RH  094%=      5-min Rain = 0
KSE1 240755Z 18005KT 12/11 A2994 RMK A01 T01230109  RH  094%=      5-min Rain = 0
KSE1 240800Z 18006KT 12/11 A2994 RMK A01 T01240110  RH  095%=      5-min Rain = 0
KSE1 240805Z 18007KT 13/11 A2994 RMK A01 T01270113  RH  095%=      5-min Rain = 0
KSE1 240810Z 18007KT 13/12 A2993 RMK A01 T01310116  RH  094%=      5-min Rain = 0
KSE1 240815Z 18008KT 13/12 A2993 RMK A01 T01330118  RH  094%=      5-min Rain = 0
KSE1 240820Z 18008KT 14/12 A2993 RMK A01 T01360119  RH  093%=      5-min Rain = 0
KSE1 240825Z 17007KT 14/12 A2993 RMK A01 T01350117  RH  092%=      5-min Rain = 0
KSE1 240830Z 18007KT 13/12 A2993 RMK A01 T01340116  RH  092%=      5-min Rain = 0
KSE1 240835Z 18008KT 14/12 A2993 RMK A01 T01350117  RH  093%=      5-min Rain = 0
KSE1 240840Z 18008KT 14/12 A2993 RMK A01 T01350117  RH  092%=      5-min Rain = 0
KSE1 240845Z 18008KT 14/12 A2992 RMK A01 T01360118  RH  092%=      5-min Rain = 0
KSE1 240850Z 18009KT 14/12 A2992 RMK A01 T01370119  RH  092%=      5-min Rain = 0
KSE1 240855Z 18008KT 14/12 A2993 RMK A01 T01370118  RH  092%=      5-min Rain = 0
KSE1 240900Z 18008KT 14/12 A2993 RMK A01 T01360118  RH  092%=      5-min Rain = 0
KSE1 240905Z 18007KT 14/12 A2993 RMK A01 T01350116  RH  092%=      5-min Rain = 0
KSE1 240910Z 19007KT 13/12 A2993 RMK A01 T01340116  RH  092%=      5-min Rain = 0
KSE1 240915Z 19006KT 13/12 A2993 RMK A01 T01330115  RH  092%=      5-min Rain = 0
KSE1 240920Z 19007KT 13/11 A2993 RMK A01 T01300113  RH  092%=      5-min Rain = 0
KSE1 240925Z 19006KT 13/11 A2993 RMK A01 T01260110  RH  093%=      5-min Rain = 0
KSE1 240930Z 20007KT 12/11 A2993 RMK A01 T01240108  RH  094%=      5-min Rain = 0
KSE1 240935Z 20008KT 12/11 A2993 RMK A01 T01230108  RH  094%=      5-min Rain = 0
KSE1 240940Z 19009KT 12/11 A2993 RMK A01 T01240109  RH  094%=      5-min Rain = 0
KSE1 240945Z 19009KT 13/11 A2994 RMK A01 T01250110  RH  094%=      5-min Rain = 0
KSE1 240950Z 20009KT 13/11 A2994 RMK A01 T01270111  RH  093%=      5-min Rain = 0
KSE1 240955Z 20009KT 13/11 A2994 RMK A01 T01290112  RH  092%=      5-min Rain = 0
KSE1 241000Z 19010KT 13/11 A2994 RMK A01 T01300112  RH  092%=      5-min Rain = 0
KSE1 241005Z 19010KT 13/11 A2994 RMK A01 T01320112  RH  091%=      5-min Rain = 0
KSE1 241010Z 19010KT 13/11 A2994 RMK A01 T01330112  RH  091%=      5-min Rain = 0
KSE1 241015Z 19011KT 14/12 A2994 RMK A01 T01360115  RH  090%=      5-min Rain = 0
KSE1 241020Z 20012KT 14/12 A2994 RMK A01 T01390116  RH  089%=      5-min Rain = 0
KSE1 241025Z 20011KT 14/12 A2994 RMK A01 T01400116  RH  089%=      5-min Rain = 0
KSE1 241030Z 20012KT 14/12 A2994 RMK A01 T01400116  RH  089%=      5-min Rain = 0
KSE1 241035Z 20011KT 14/12 A2995 RMK A01 T01400116  RH  089%=      5-min Rain = 0
KSE1 241040Z 20011KT 14/12 A2995 RMK A01 T01390116  RH  089%=      5-min Rain = 0
KSE1 241045Z 20010KT 14/12 A2995 RMK A01 T01380116  RH  090%=      5-min Rain = 0
KSE1 241050Z 20010KT 14/12 A2995 RMK A01 T01380116  RH  090%=      5-min Rain = 0
KSE1 241055Z 20010KT 14/12 A2995 RMK A01 T01370116  RH  090%=      5-min Rain = 0
KSE1 241100Z 20010KT 14/12 A2995 RMK A01 T01360115  RH  090%=      5-min Rain = 0
KSE1 241105Z 20010KT 14/11 A2995 RMK A01 T01350114  RH  090%=      5-min Rain = 0
KSE1 241110Z 20009KT 13/11 A2995 RMK A01 T01340113  RH  091%=      5-min Rain = 0
KSE1 241115Z 20009KT 13/11 A2995 RMK A01 T01320112  RH  091%=      5-min Rain = 0
KSE1 241120Z 20008KT 13/11 A2995 RMK A01 T01320111  RH  091%=      5-min Rain = 0
KSE1 241125Z 20008KT 13/11 A2995 RMK A01 T01300111  RH  091%=      5-min Rain = 0
KSE1 241130Z 20008KT 13/11 A2995 RMK A01 T01290110  RH  091%=      5-min Rain = 0
KSE1 241135Z 20007KT 13/11 A2995 RMK A01 T01280109  RH  091%=      5-min Rain = 0
KSE1 241140Z 20007KT 13/11 A2996 RMK A01 T01270108  RH  092%=      5-min Rain = 0
KSE1 241145Z 21007KT 13/11 A2996 RMK A01 T01260108  RH  092%=      5-min Rain = 0
KSE1 241150Z 21006KT 13/11 A2996 RMK A01 T01260107  RH  092%=      5-min Rain = 0
KSE1 241155Z 22006KT 13/11 A2996 RMK A01 T01250107  RH  092%=      5-min Rain = 0
KSE1 241200Z 22006KT 13/11 A2997 RMK A01 T01260108  RH  092%=      5-min Rain = 0
KSE1 241205Z 22006KT 13/11 A2997 RMK A01 T01270108  RH  092%=      5-min Rain = 0
KSE1 241210Z 21005KT 13/11 A2997 RMK A01 T01260107  RH  091%=      5-min Rain = 0
KSE1 241215Z 21005KT 13/11 A2997 RMK A01 T01270108  RH  092%=      5-min Rain = 0
KSE1 241220Z 22005KT 13/11 A2997 RMK A01 T01260107  RH  091%=      5-min Rain = 0
KSE1 241225Z 23003KT 12/10 A2998 RMK A01 T01230104  RH  091%=      5-min Rain = 0
KSE1 241230Z 30005KT 12/10 A2998 RMK A01 T01210103  RH  092%=      5-min Rain = 0
KSE1 241235Z 30008KT 12/10 A2999 RMK A01 T01190103  RH  093%=      5-min Rain = 0
KSE1 241240Z 29007KT 12/10 A2999 RMK A01 T01210104  RH  093%=      5-min Rain = 0
KSE1 241245Z 30007KT 12/10 A30 RMK A01 T01180100  RH  092%=      5-min Rain = 0
KSE1 241250Z 28005KT 12/10 A30 RMK A01 T01170099  RH  091%=      5-min Rain = 0
KSE1 241255Z 27005KT 12/10 A30 RMK A01 T01170098  RH  091%=      5-min Rain = 0
KSE1 241300Z 24006KT 12/10 A30 RMK A01 T01190100  RH  091%=      5-min Rain = 0
KSE1 241305Z 24007KT 12/10 A30 RMK A01 T01230104  RH  091%=      5-min Rain = 0
KSE1 241310Z 23007KT 13/11 A30 RMK A01 T01290108  RH  090%=      5-min Rain = 0
KSE1 241315Z 23008KT 13/11 A30 RMK A01 T01330110  RH  089%=      5-min Rain = 0
KSE1 241320Z 23008KT 13/11 A30 RMK A01 T01340111  RH  089%=      5-min Rain = 0
KSE1 241325Z 24007KT 14/11 A30 RMK A01 T01350111  RH  088%=      5-min Rain = 0
KSE1 241330Z 23008KT 14/11 A30 RMK A01 T01350111  RH  088%=      5-min Rain = 0
KSE1 241335Z 22009KT 13/11 A3001 RMK A01 T01340109  RH  087%=      5-min Rain = 0
KSE1 241340Z 21007KT 13/11 A3001 RMK A01 T01330108  RH  088%=      5-min Rain = 0
KSE1 241345Z 20009KT 13/11 A30 RMK A01 T01320108  RH  088%=      5-min Rain = 0
KSE1 241350Z 19009KT 13/11 A30 RMK A01 T01340110  RH  088%=      5-min Rain = 0
KSE1 241355Z 20007KT 14/11 A30 RMK A01 T01370112  RH  088%=      5-min Rain = 0
KSE1 241400Z 22006KT 14/11 A3001 RMK A01 T01400114  RH  087%=      5-min Rain = 0
KSE1 241405Z 22007KT 15/12 A3001 RMK A01 T01450117  RH  086%=      5-min Rain = 0
KSE1 241410Z 22007KT 15/12 A3001 RMK A01 T01490118  RH  084%=      5-min Rain = 0
KSE1 241415Z 22009KT 15/12 A3001 RMK A01 T01520115  RH  082%=      5-min Rain = 0
KSE1 241420Z 22010KT 15/11 A3002 RMK A01 T01540113  RH  079%=      5-min Rain = 0
KSE1 241425Z 23010KT 16/11 A3002 RMK A01 T01570112  RH  077%=      5-min Rain = 0
KSE1 241430Z 23010KT 16/11 A3002 RMK A01 T01580108  RH  075%=      5-min Rain = 0
KSE1 241435Z 24011KT 16/10 A3002 RMK A01 T01580103  RH  072%=      5-min Rain = 0
KSE1 241440Z 24011KT 16/10 A3002 RMK A01 T01580099  RH  070%=      5-min Rain = 0
KSE1 241445Z 23010KT 16/10 A3002 RMK A01 T01600097  RH  068%=      5-min Rain = 0
KSE1 241450Z 24012KT 16/09 A3002 RMK A01 T01630090  RH  064%=      5-min Rain = 0
KSE1 241455Z 24011KT 17/09 A3002 RMK A01 T01660089  RH  062%=      5-min Rain = 0
KSE1 241500Z 24011KT 17/08 A3002 RMK A01 T01690084  RH  059%=      5-min Rain = 0
KSE1 241505Z 24011KT 17/08 A3003 RMK A01 T01700079  RH  057%=      5-min Rain = 0
KSE1 241510Z 24010KT 17/08 A3003 RMK A01 T01730075  RH  054%=      5-min Rain = 0
KSE1 241515Z 26010KT 17/06 A3003 RMK A01 T01730061  RH  049%=      5-min Rain = 0
KSE1 241520Z 26009KT 17/07 A3003 RMK A01 T01740065  RH  050%=      5-min Rain = 0
KSE1 241525Z 26010KT 17/07 A3003 RMK A01 T01740066  RH  050%=      5-min Rain = 0
KSE1 241530Z 27010KT 17/06 A3003 RMK A01 T01720063  RH  050%=      5-min Rain = 0
KSE1 241535Z 27010KT 17/06 A3003 RMK A01 T01720059  RH  048%=      5-min Rain = 0
KSE1 241540Z 27010KT 17/06 A3004 RMK A01 T01740059  RH  048%=      5-min Rain = 0
KSE1 241545Z 27009KT 17/06 A3004 RMK A01 T01740055  RH  046%=      5-min Rain = 0
KSE1 241550Z 26009KT 18/06 A3004 RMK A01 T01760055  RH  046%=      5-min Rain = 0
KSE1 241555Z 26010KT 18/05 A3004 RMK A01 T01780045  RH  042%=      5-min Rain = 0
KSE1 241600Z 26010KT 18/04 A3004 RMK A01 T01770040  RH  041%=      5-min Rain = 0
KSE1 241605Z 26009KT 18/05 A3004 RMK A01 T01800046  RH  042%=      5-min Rain = 0
KSE1 241610Z 24009KT 18/05 A3004 RMK A01 T01830051  RH  043%=      5-min Rain = 0
KSE1 241615Z 25009KT 18/05 A3004 RMK A01 T01840046  RH  041%=      5-min Rain = 0
KSE1 241620Z 26009KT 19/05 A3004 RMK A01 T01850046  RH  041%=      5-min Rain = 0
KSE1 241625Z 27009KT 18/05 A3004 RMK A01 T01830047  RH  042%=      5-min Rain = 0
KSE1 241630Z 26008KT 18/05 A3005 RMK A01 T01830047  RH  042%=      5-min Rain = 0
KSE1 241635Z 25009KT 19/05 A3005 RMK A01 T01850049  RH  041%=      5-min Rain = 0
KSE1 241640Z 26007KT 19/06 A3005 RMK A01 T01870056  RH  043%=      5-min Rain = 0
KSE1 241645Z 28008KT 19/06 A3005 RMK A01 T01860061  RH  045%=      5-min Rain = 0
KSE1 241650Z 27006KT 19/06 A3005 RMK A01 T01880064  RH  046%=      5-min Rain = 0
KSE1 241655Z 26007G12KT 19/07 A3005 RMK A01 T01900068  RH  046%=      5-min Rain = 0
KSE1 241700Z 28007KT 19/07 A3005 RMK A01 T01900070  RH  047%=      5-min Rain = 0
KSE1 241705Z 27008KT 19/07 A3005 RMK A01 T01920068  RH  046%=      5-min Rain = 0
KSE1 241710Z 27007KT 19/07 A3005 RMK A01 T01900069  RH  047%=      5-min Rain = 0
KSE1 241715Z 26008KT 19/07 A3005 RMK A01 T01940071  RH  046%=      5-min Rain = 0
KSE1 241720Z 24009KT 20/07 A3004 RMK A01 T01960068  RH  044%=      5-min Rain = 0
KSE1 241725Z 24008G13KT 19/07 A3004 RMK A01 T01940067  RH  045%=      5-min Rain = 0
KSE1 241730Z 28006G11KT 20/08 A3004 RMK A01 T01970076  RH  047%=      5-min Rain = 0
KSE1 241735Z 25006G11KT 20/07 A3004 RMK A01 T01970074  RH  046%=      5-min Rain = 0
KSE1 241740Z 28007KT 20/08 A3005 RMK A01 T02000080  RH  047%=      5-min Rain = 0
KSE1 241745Z 26007KT 20/07 A3005 RMK A01 T01970074  RH  046%=      5-min Rain = 0
KSE1 241750Z 28005G11KT 20/08 A3005 RMK A01 T01960078  RH  047%=      5-min Rain = 0
KSE1 241755Z 26007KT 20/07 A3005 RMK A01 T01980073  RH  045%=      5-min Rain = 0
KSE1 241800Z 29008KT 20/08 A3004 RMK A01 T02020076  RH  045%=      5-min Rain = 0
KSE1 241805Z 28008KT 20/07 A3004 RMK A01 T02000074  RH  045%=      5-min Rain = 0
KSE1 241810Z 28007KT 20/08 A3004 RMK A01 T02000077  RH  046%=      5-min Rain = 0
KSE1 241815Z 30007KT 20/08 A3004 RMK A01 T02010075  RH  045%=      5-min Rain = 0
KSE1 241820Z 29009KT 20/08 A3003 RMK A01 T02020076  RH  045%=      5-min Rain = 0
KSE1 241825Z 28009KT 20/07 A3003 RMK A01 T02000072  RH  044%=      5-min Rain = 0
KSE1 241830Z 29006KT 19/07 A3003 RMK A01 T01940072  RH  046%=      5-min Rain = 0
KSE1 241835Z 28007KT 20/08 A3003 RMK A01 T01970080  RH  048%=      5-min Rain = 0
KSE1 241840Z 27007KT 20/08 A3003 RMK A01 T01980079  RH  047%=      5-min Rain = 0
KSE1 241845Z 28005KT 20/08 A3002 RMK A01 T02020079  RH  046%=      5-min Rain = 0
KSE1 241850Z 28005KT 20/08 A3002 RMK A01 T02020082  RH  047%=      5-min Rain = 0
KSE1 241855Z 28005KT 21/08 A3002 RMK A01 T02050083  RH  047%=      5-min Rain = 0
KSE1 241900Z 28005KT 21/09 A3002 RMK A01 T02070086  RH  047%=      5-min Rain = 0
KSE1 241905Z 27005KT 21/08 A3002 RMK A01 T02060083  RH  046%=      5-min Rain = 0
KSE1 241910Z 29006KT 21/08 A3002 RMK A01 T02110084  RH  045%=      5-min Rain = 0
KSE1 241915Z 32006G12KT 21/08 A3002 RMK A01 T02140079  RH  043%=      5-min Rain = 0
KSE1 241920Z 30007KT 22/08 A3002 RMK A01 T02160084  RH  044%=      5-min Rain = 0
KSE1 241925Z 28004KT 22/09 A3002 RMK A01 T02160085  RH  045%=      5-min Rain = 0
KSE1 241930Z 26006KT 22/09 A3002 RMK A01 T02150085  RH  045%=      5-min Rain = 0
KSE1 241935Z 31005KT 22/09 A3001 RMK A01 T02200088  RH  044%=      5-min Rain = 0
KSE1 241940Z 32005KT 22/09 A3001 RMK A01 T02190086  RH  044%=      5-min Rain = 0
KSE1 241945Z 31004KT 22/09 A3001 RMK A01 T02180086  RH  044%=      5-min Rain = 0
KSE1 241950Z 00001KT 22/09 A30 RMK A01 T02160085  RH  044%=      5-min Rain = 0
KSE1 241955Z 30003G8KT 22/08 A3001 RMK A01 T02210084  RH  043%=      5-min Rain = 0
KSE1 242000Z 28004KT 22/08 A30 RMK A01 T02210082  RH  042%=      5-min Rain = 0
KSE1 242005Z 29005KT 22/09 A3001 RMK A01 T02240085  RH  042%=      5-min Rain = 0
KSE1 242010Z 27006KT 23/09 A3001 RMK A01 T02270089  RH  043%=      5-min Rain = 0
KSE1 242015Z 26003G9KT 22/09 A3001 RMK A01 T02230085  RH  043%=      5-min Rain = 0
KSE1 242020Z 32004G9KT 22/09 A30 RMK A01 T02230086  RH  043%=      5-min Rain = 0
KSE1 242025Z 30005KT 22/08 A30 RMK A01 T02230084  RH  042%=      5-min Rain = 0
KSE1 242030Z 32005KT 23/09 A30 RMK A01 T02250090  RH  043%=      5-min Rain = 0
KSE1 242035Z 01007KT 23/09 A30 RMK A01 T02280088  RH  042%=      5-min Rain = 0
KSE1 242040Z 35007KT 23/09 A30 RMK A01 T02290090  RH  042%=      5-min Rain = 0
KSE1 242045Z 02007KT 23/09 A30 RMK A01 T02270089  RH  043%=      5-min Rain = 0
KSE1 242050Z 35006KT 23/08 A30 RMK A01 T02280084  RH  041%=      5-min Rain = 0
KSE1 242055Z 32004KT 23/09 A2999 RMK A01 T02270087  RH  042%=      5-min Rain = 0
KSE1 242100Z 32006KT 22/09 A2999 RMK A01 T02240090  RH  044%=      5-min Rain = 0
KSE1 242105Z 33004G9KT 22/09 A2999 RMK A01 T02240086  RH  042%=      5-min Rain = 0
KSE1 242110Z 36003KT 23/09 A2999 RMK A01 T02280089  RH  042%=      5-min Rain = 0
KSE1 242115Z 01006KT 23/08 A2999 RMK A01 T02250084  RH  042%=      5-min Rain = 0
KSE1 242120Z 02004KT 22/09 A2999 RMK A01 T02240088  RH  043%=      5-min Rain = 0
KSE1 242125Z 00006KT 23/09 A2999 RMK A01 T02250087  RH  042%=      5-min Rain = 0
KSE1 242130Z 36003G8KT 22/08 A2999 RMK A01 T02200081  RH  042%=      5-min Rain = 0
KSE1 242135Z 00004KT 22/09 A2999 RMK A01 T02240091  RH  044%=      5-min Rain = 0
KSE1 242140Z 36006KT 23/10 A2999 RMK A01 T02280096  RH  044%=      5-min Rain = 0
KSE1 242145Z 00007KT 23/09 A2999 RMK A01 T02290094  RH  044%=      5-min Rain = 0
KSE1 242150Z 36007G12KT 23/10 A2999 RMK A01 T02260095  RH  045%=      5-min Rain = 0
KSE1 242155Z 01007KT 22/09 A2999 RMK A01 T02240093  RH  044%=      5-min Rain = 0
KSE1 242200Z 02008KT 22/09 A2999 RMK A01 T02220090  RH  044%=      5-min Rain = 0
KSE1 242205Z 02007KT 22/09 A2999 RMK A01 T02190087  RH  044%=      5-min Rain = 0
KSE1 242210Z 00006KT 22/09 A2999 RMK A01 T02230086  RH  043%=      5-min Rain = 0
KSE1 242215Z 02008KT 22/08 A2999 RMK A01 T02240083  RH  042%=      5-min Rain = 0
KSE1 242220Z 01006KT 22/09 A2999 RMK A01 T02240086  RH  042%=      5-min Rain = 0
KSE1 242225Z 01009KT 23/09 A2999 RMK A01 T02280088  RH  042%=      5-min Rain = 0
KSE1 242230Z 36008KT 23/09 A2999 RMK A01 T02270089  RH  043%=      5-min Rain = 0
KSE1 242235Z 00008KT 23/09 A2999 RMK A01 T02280093  RH  043%=      5-min Rain = 0
KSE1 242240Z 35009KT 22/09 A2999 RMK A01 T02210092  RH  045%=      5-min Rain = 0
KSE1 242245Z 35006KT 22/09 A2999 RMK A01 T02240093  RH  045%=      5-min Rain = 0
KSE1 242250Z 35008G13KT 23/09 A2999 RMK A01 T02250092  RH  044%=      5-min Rain = 0
KSE1 242255Z 34010KT 23/09 A2998 RMK A01 T02250089  RH  043%=      5-min Rain = 0
KSE1 242300Z 34009KT 22/09 A2998 RMK A01 T02240089  RH  043%=      5-min Rain = 0
KSE1 242305Z 34008KT 23/09 A2998 RMK A01 T02250091  RH  044%=      5-min Rain = 0
KSE1 242310Z 34008KT 23/09 A2998 RMK A01 T02250093  RH  044%=      5-min Rain = 0
KSE1 242315Z 34008KT 22/09 A2998 RMK A01 T02240094  RH  045%=      5-min Rain = 0
KSE1 242320Z 34009KT 22/09 A2998 RMK A01 T02220093  RH  045%=      5-min Rain = 0
KSE1 242325Z 36010KT 22/09 A2999 RMK A01 T02210093  RH  045%=      5-min Rain = 0
KSE1 242330Z 00010KT 22/09 A2999 RMK A01 T02200092  RH  045%=      5-min Rain = 0
KSE1 242335Z 00011KT 22/09 A2999 RMK A01 T02190090  RH  045%=      5-min Rain = 0
KSE1 242340Z 00010KT 22/09 A2999 RMK A01 T02190090  RH  045%=      5-min Rain = 0
KSE1 242345Z 00011KT 22/09 A2999 RMK A01 T02180087  RH  044%=      5-min Rain = 0
KSE1 242350Z 35011KT 22/09 A2999 RMK A01 T02170085  RH  044%=      5-min Rain = 0
KSE1 242355Z 34011KT 22/08 A2999 RMK A01 T02160084  RH  044%=      5-min Rain = 0
KSE1 250000Z 35010KT 22/08 A30 RMK A01 T02150084  RH  044%=      5-min Rain = 0
KSE1 250005Z 35010KT 21/09 A30 RMK A01 T02140087  RH  045%=      5-min Rain = 0
KSE1 250010Z 36008KT 21/09 A30 RMK A01 T02110089  RH  047%=      5-min Rain = 0
KSE1 250015Z 36008KT 21/09 A30 RMK A01 T02110088  RH  046%=      5-min Rain = 0
KSE1 250020Z 36009KT 21/09 A30 RMK A01 T02110087  RH  046%=      5-min Rain = 0
KSE1 250025Z 00009KT 21/09 A30 RMK A01 T02110087  RH  046%=      5-min Rain = 0
KSE1 250030Z 36008KT 21/09 A30 RMK A01 T02090088  RH  047%=      5-min Rain = 0
KSE1 250035Z 35007KT 21/09 A30 RMK A01 T02060091  RH  049%=      5-min Rain = 0
KSE1 250040Z 35008KT 20/09 A30 RMK A01 T02010093  RH  051%=      5-min Rain = 0
KSE1 250045Z 35008KT 20/09 A30 RMK A01 T02000093  RH  052%=      5-min Rain = 0
KSE1 250050Z 36008KT 20/09 A30 RMK A01 T01980093  RH  052%=      5-min Rain = 0
KSE1 250055Z 35006KT 19/09 A30 RMK A01 T01940093  RH  054%=      5-min Rain = 0
KSE1 250100Z 36007KT 19/09 A30 RMK A01 T01880094  RH  056%=      5-min Rain = 0
KSE1 250105Z 00008KT 19/09 A30 RMK A01 T01860092  RH  056%=      5-min Rain = 0
KSE1 250110Z 01009KT 19/09 A30 RMK A01 T01850089  RH  055%=      5-min Rain = 0
KSE1 250115Z 36008KT 18/09 A30 RMK A01 T01780089  RH  058%=      5-min Rain = 0
KSE1 250120Z 00007KT 18/09 A30 RMK A01 T01810088  RH  056%=      5-min Rain = 0
KSE1 250125Z 00007KT 17/09 A30 RMK A01 T01740088  RH  059%=      5-min Rain = 0
KSE1 250130Z 01008KT 17/09 A30 RMK A01 T01730089  RH  059%=      5-min Rain = 0
KSE1 250135Z 01008KT 17/09 A30 RMK A01 T01660088  RH  062%=      5-min Rain = 0
KSE1 250140Z 01008KT 15/09 A30 RMK A01 T01540089  RH  067%=      5-min Rain = 0
KSE1 250145Z 01008KT 15/09 A30 RMK A01 T01540091  RH  068%=      5-min Rain = 0
KSE1 250150Z 01008KT 16/09 A3001 RMK A01 T01550090  RH  067%=      5-min Rain = 0
KSE1 250155Z 01008KT 15/09 A3001 RMK A01 T01540090  RH  068%=      5-min Rain = 0
KSE1 250200Z 01008KT 15/09 A3001 RMK A01 T01520090  RH  068%=      5-min Rain = 0
KSE1 250205Z 01009KT 15/09 A3002 RMK A01 T01540089  RH  067%=      5-min Rain = 0
KSE1 250210Z 01010KT 16/09 A3002 RMK A01 T01560089  RH  066%=      5-min Rain = 0
KSE1 250215Z 00009KT 16/09 A3002 RMK A01 T01610090  RH  064%=      5-min Rain = 0
KSE1 250220Z 01009KT 16/09 A3002 RMK A01 T01630089  RH  063%=      5-min Rain = 0
KSE1 250225Z 00009KT 16/09 A3003 RMK A01 T01590089  RH  065%=      5-min Rain = 0
KSE1 250230Z 00009KT 16/09 A3003 RMK A01 T01600089  RH  065%=      5-min Rain = 0
KSE1 250235Z 01009KT 16/09 A3003 RMK A01 T01600089  RH  065%=      5-min Rain = 0
KSE1 250240Z 01009KT 16/09 A3004 RMK A01 T01600088  RH  064%=      5-min Rain = 0
KSE1 250245Z 01009KT 16/09 A3004 RMK A01 T01600087  RH  064%=      5-min Rain = 0
KSE1 250250Z 01008KT 16/09 A3004 RMK A01 T01570086  RH  065%=      5-min Rain = 0
KSE1 250255Z 01008KT 15/09 A3004 RMK A01 T01520085  RH  066%=      5-min Rain = 0
KSE1 250300Z 02009KT 15/09 A3005 RMK A01 T01510085  RH  067%=      5-min Rain = 0
KSE1 250305Z 02009KT 15/09 A3005 RMK A01 T01520085  RH  066%=      5-min Rain = 0
KSE1 250310Z 02010KT 16/08 A3005 RMK A01 T01550084  RH  065%=      5-min Rain = 0
KSE1 250315Z 02008KT 15/08 A3005 RMK A01 T01530084  RH  065%=      5-min Rain = 0
KSE1 250320Z 02008KT 15/08 A3005 RMK A01 T01510084  RH  066%=      5-min Rain = 0
KSE1 250325Z 03009KT 15/09 A3005 RMK A01 T01510085  RH  067%=      5-min Rain = 0
KSE1 250330Z 02009KT 15/09 A3006 RMK A01 T01500085  RH  067%=      5-min Rain = 0
KSE1 250335Z 02008KT 15/08 A3006 RMK A01 T01490084  RH  067%=      5-min Rain = 0
KSE1 250340Z 02009KT 15/08 A3006 RMK A01 T01490083  RH  066%=      5-min Rain = 0
KSE1 250345Z 02009KT 15/08 A3006 RMK A01 T01490082  RH  066%=      5-min Rain = 0
KSE1 250350Z 02009KT 15/08 A3006 RMK A01 T01480081  RH  066%=      5-min Rain = 0
KSE1 250355Z 02008KT 15/08 A3006 RMK A01 T01470081  RH  067%=      5-min Rain = 0
KSE1 250400Z 03008KT 14/08 A3006 RMK A01 T01430081  RH  068%=      5-min Rain = 0
KSE1 250405Z 03009KT 14/08 A3006 RMK A01 T01430081  RH  068%=      5-min Rain = 0
KSE1 250410Z 03009KT 14/08 A3006 RMK A01 T01440082  RH  068%=      5-min Rain = 0
KSE1 250415Z 03009KT 14/08 A3006 RMK A01 T01430081  RH  068%=      5-min Rain = 0
KSE1 250420Z 03009KT 14/08 A3006 RMK A01 T01420081  RH  068%=      5-min Rain = 0
KSE1 250425Z 03010KT 14/08 A3006 RMK A01 T01430081  RH  068%=      5-min Rain = 0
KSE1 250430Z 03009KT 14/08 A3006 RMK A01 T01410081  RH  069%=      5-min Rain = 0
KSE1 250435Z 04007KT 14/08 A3006 RMK A01 T01380081  RH  070%=      5-min Rain = 0
KSE1 250440Z 04006KT 14/08 A3006 RMK A01 T01370080  RH  071%=      5-min Rain = 0
KSE1 250445Z 04006KT 13/08 A3006 RMK A01 T01330079  RH  072%=      5-min Rain = 0
KSE1 250450Z 04007KT 13/08 A3006 RMK A01 T01330080  RH  072%=      5-min Rain = 0
KSE1 250455Z 05006KT 13/08 A3006 RMK A01 T01320079  RH  072%=      5-min Rain = 0

Page generated in 0.0201 seconds.